Time;durP1;ratioP1;P1;durP2;ratioP2;P2;SDS_P1;SDS_P2;PMS_P1;PMS_P2;Temp;Humidity;BMP_temperature;BMP_pressure;BME280_temperature;BME280_humidity;BME280_pressure;Samples;Min_cycle;Max_cycle;Signal;HPM_P1;HPM_P2
2021/10/20 00:02:54;;;;;;;1.27;0.90;;;23.70;39.40;21.10;94350.00;;;;10352304;28;46346;-61
2021/10/20 00:07:55;;;;;;;1.05;0.90;;;23.70;39.40;21.00;94342.00;;;;10334249;28;45653;-62
2021/10/20 00:12:55;;;;;;;1.35;1.00;;;23.70;39.30;21.00;94340.00;;;;10350225;28;53086;-61
2021/10/20 00:17:56;;;;;;;1.20;0.90;;;23.70;39.40;21.00;94329.00;;;;10351020;28;64590;-62
2021/10/20 00:22:57;;;;;;;1.35;0.93;;;23.70;39.40;21.00;94307.00;;;;10349057;28;73424;-62
2021/10/20 00:27:58;;;;;;;1.42;0.80;;;23.70;39.40;21.00;94314.00;;;;10333752;28;46505;-61
2021/10/20 00:32:58;;;;;;;1.52;0.90;;;23.70;39.40;21.00;94303.00;;;;10350240;28;73503;-61
2021/10/20 00:37:59;;;;;;;1.10;0.90;;;23.70;39.40;21.00;94310.00;;;;10332927;28;56482;-63
2021/10/20 00:43:00;;;;;;;1.17;0.88;;;23.70;39.40;20.90;94283.00;;;;10332028;28;75685;-63
2021/10/20 00:48:01;;;;;;;1.20;0.90;;;23.70;39.40;20.90;94287.00;;;;10333228;28;45319;-62
2021/10/20 00:53:01;;;;;;;1.45;0.80;;;23.60;39.30;20.90;94279.00;;;;10331857;28;75674;-63
2021/10/20 00:58:03;;;;;;;1.42;0.90;;;23.70;39.40;20.90;94285.00;;;;10375539;22;50511;-60
2021/10/20 01:03:04;;;;;;;0.80;0.63;;;23.70;39.40;20.90;94266.00;;;;10366922;28;52736;-59
2021/10/20 01:08:05;;;;;;;1.63;0.90;;;23.60;39.30;20.90;94269.00;;;;10370864;28;75842;-60
2021/10/20 01:13:06;;;;;;;1.33;0.90;;;23.60;39.30;20.90;94264.00;;;;10372193;28;53491;-61
2021/10/20 01:18:07;;;;;;;1.10;0.80;;;23.60;39.30;20.90;94245.00;;;;10354731;28;67799;-59
2021/10/20 01:23:08;;;;;;;1.10;0.75;;;23.60;39.30;20.90;94250.00;;;;10372183;28;45463;-60
2021/10/20 01:28:09;;;;;;;1.00;0.82;;;23.60;39.30;20.90;94247.00;;;;10355709;28;49936;-59
2021/10/20 01:33:10;;;;;;;1.13;0.90;;;23.60;39.30;20.80;94235.00;;;;10354999;28;74031;-61
2021/10/20 01:38:11;;;;;;;1.13;0.80;;;23.60;39.30;20.90;94226.00;;;;10390529;28;74461;-60
2021/10/20 01:43:12;;;;;;;1.00;0.80;;;23.50;39.20;20.80;94223.00;;;;10377460;28;75408;-60
2021/10/20 01:48:12;;;;;;;1.40;1.00;;;23.50;39.30;20.80;94211.00;;;;10360222;28;75218;-60
2021/10/20 01:53:13;;;;;;;0.98;0.80;;;23.50;39.30;20.80;94192.00;;;;10377291;28;75668;-59
2021/10/20 01:58:14;;;;;;;1.73;0.95;;;23.50;39.20;20.80;94201.00;;;;10376208;28;75403;-60
2021/10/20 02:03:14;;;;;;;0.93;0.70;;;23.50;39.30;20.80;94196.00;;;;10360909;28;75114;-60
2021/10/20 02:08:15;;;;;;;1.35;0.85;;;23.50;39.30;20.80;94194.00;;;;10376112;28;75247;-60
2021/10/20 02:13:16;;;;;;;1.45;0.80;;;23.50;39.30;20.80;94187.00;;;;10394405;28;75714;-60
2021/10/20 02:18:16;;;;;;;1.55;0.80;;;23.50;39.20;20.70;94185.00;;;;10376332;28;74127;-60
2021/10/20 02:23:18;;;;;;;1.02;0.90;;;23.50;39.20;20.80;94173.00;;;;10377354;28;45550;-60
2021/10/20 02:28:18;;;;;;;0.80;0.80;;;23.50;39.30;20.80;94160.00;;;;10376747;28;45392;-60
2021/10/20 02:33:19;;;;;;;1.50;0.98;;;23.50;39.30;20.80;94148.00;;;;10393733;28;75036;-60
2021/10/20 02:38:20;;;;;;;0.80;0.60;;;23.50;39.30;20.70;94145.00;;;;10394052;28;45493;-61
2021/10/20 02:43:21;;;;;;;1.30;0.95;;;23.50;39.20;20.70;94132.00;;;;10394593;28;45455;-60
2021/10/20 02:48:21;;;;;;;1.85;0.98;;;23.50;39.20;20.70;94136.00;;;;10375440;28;48824;-60
2021/10/20 02:53:22;;;;;;;0.93;0.70;;;23.50;39.20;20.70;94119.00;;;;10394016;28;45343;-61
2021/10/20 02:58:23;;;;;;;1.20;0.80;;;23.40;39.20;20.70;94116.00;;;;10392179;28;73526;-61
2021/10/20 03:03:24;;;;;;;0.88;0.63;;;23.40;39.20;20.70;94110.00;;;;10392692;28;75037;-63
2021/10/20 03:08:24;;;;;;;1.10;0.73;;;23.40;39.20;20.70;94115.00;;;;10392195;28;74283;-60
2021/10/20 03:13:25;;;;;;;1.17;0.77;;;23.40;39.20;20.70;94112.00;;;;10375984;28;47381;-61
2021/10/20 03:18:26;;;;;;;1.00;0.80;;;23.40;39.20;20.70;94106.00;;;;10391647;28;74355;-60
2021/10/20 03:23:27;;;;;;;1.40;0.80;;;23.40;39.20;20.70;94104.00;;;;10392570;28;46025;-61
2021/10/20 03:28:27;;;;;;;0.82;0.80;;;23.40;39.20;20.70;94097.00;;;;10375136;28;45461;-60
2021/10/20 03:33:28;;;;;;;1.55;0.90;;;23.40;39.20;20.70;94090.00;;;;10391984;28;75603;-62
2021/10/20 03:38:29;;;;;;;1.15;1.00;;;23.40;39.20;20.60;94087.00;;;;10391779;28;52599;-60
2021/10/20 03:43:30;;;;;;;1.15;0.80;;;23.40;39.20;20.60;94072.00;;;;10356910;28;75518;-60
2021/10/20 03:48:31;;;;;;;1.15;0.60;;;23.40;39.20;20.60;94069.00;;;;10374570;28;45792;-59
2021/10/20 03:53:32;;;;;;;1.20;0.75;;;23.40;39.20;20.60;94069.00;;;;10374855;28;46427;-62
2021/10/20 03:58:32;;;;;;;1.10;0.70;;;23.30;39.20;20.60;94070.00;;;;10391514;28;52082;-60
2021/10/20 04:03:33;;;;;;;1.15;0.82;;;23.30;39.20;20.60;94085.00;;;;10373005;28;75132;-60
2021/10/20 04:08:34;;;;;;;1.00;0.70;;;23.30;39.20;20.60;94071.00;;;;10391496;28;46037;-61
2021/10/20 04:13:34;;;;;;;1.05;0.77;;;23.30;39.30;20.70;94064.00;;;;10390992;28;75544;-60
2021/10/20 04:18:35;;;;;;;0.93;0.70;;;23.30;39.60;20.70;94069.00;;;;10373460;28;45828;-60
2021/10/20 04:23:36;;;;;;;0.90;0.80;;;23.40;39.50;20.80;94065.00;;;;10390651;28;75396;-61
2021/10/20 04:28:37;;;;;;;1.20;0.90;;;23.40;39.40;20.80;94048.00;;;;10372024;28;75269;-59
2021/10/20 04:33:37;;;;;;;1.33;0.80;;;23.60;39.40;20.90;94053.00;;;;10373186;28;70212;-60
2021/10/20 04:38:38;;;;;;;1.20;0.90;;;23.50;39.30;20.90;94037.00;;;;10390622;28;75554;-59
2021/10/20 04:43:40;;;;;;;0.95;0.80;;;23.50;39.20;20.90;94049.00;;;;10373709;28;75575;-60
2021/10/20 04:48:40;;;;;;;0.80;0.80;;;23.60;39.20;21.00;94038.00;;;;10391866;28;45410;-60
2021/10/20 04:53:41;;;;;;;1.30;0.70;;;23.60;39.20;21.00;94035.00;;;;10391609;28;46829;-61
2021/10/20 04:58:42;;;;;;;1.55;0.90;;;23.70;39.10;21.00;94014.00;;;;10389122;28;75528;-59
2021/10/20 05:03:42;;;;;;;1.15;0.70;;;23.70;39.00;21.10;94034.00;;;;10371573;28;75349;-60
2021/10/20 05:08:43;;;;;;;0.77;0.65;;;23.70;39.00;21.10;94033.00;;;;10389044;28;75700;-60
2021/10/20 05:13:44;;;;;;;1.02;0.90;;;23.70;38.90;21.10;94019.00;;;;10358491;28;75416;-58
2021/10/20 05:18:44;;;;;;;1.27;0.90;;;23.80;38.90;21.10;94043.00;;;;10379379;28;45410;-60
2021/10/20 05:23:49;;;;;;;1.42;0.90;;;23.80;38.80;21.10;94019.00;;;;10396724;28;54582;-60
2021/10/20 05:28:50;;;;;;;0.88;0.70;;;23.80;38.80;21.20;94013.00;;;;10378930;28;46128;-60
2021/10/20 05:33:51;;;;;;;1.08;0.75;;;23.80;38.80;21.20;94001.00;;;;10395592;28;72357;-59
2021/10/20 05:38:51;;;;;;;1.02;0.82;;;23.80;38.70;21.20;94001.00;;;;10377521;28;75341;-61
2021/10/20 05:43:52;;;;;;;0.98;0.80;;;23.90;38.70;21.20;94012.00;;;;10378617;28;50200;-61
2021/10/20 05:48:53;;;;;;;1.02;0.88;;;23.90;38.60;21.20;93999.00;;;;10377919;28;58664;-61
2021/10/20 05:53:53;;;;;;;1.15;0.63;;;23.90;38.50;21.20;94001.00;;;;10377556;28;59659;-60
2021/10/20 05:58:54;;;;;;;1.80;0.80;;;23.90;38.50;21.30;94015.00;;;;10360346;28;59240;-60
2021/10/20 06:03:54;;;;;;;1.10;0.80;;;23.90;38.40;21.30;94009.00;;;;10395849;28;74490;-59
2021/10/20 06:08:55;;;;;;;1.85;0.90;;;23.90;38.40;21.30;93981.00;;;;10392328;28;75667;-62
2021/10/20 06:13:56;;;;;;;1.30;0.85;;;23.90;38.40;21.30;94005.00;;;;10387391;28;60594;-61
2021/10/20 06:18:57;;;;;;;1.52;1.20;;;24.00;38.30;21.30;94002.00;;;;10387256;28;73352;-59
2021/10/20 06:23:58;;;;;;;1.92;1.23;;;24.00;38.30;21.30;94009.00;;;;10385764;28;75738;-62
2021/10/20 06:28:59;;;;;;;1.65;1.00;;;24.00;38.30;21.30;93999.00;;;;10390495;28;49375;-60
2021/10/20 06:34:00;;;;;;;2.58;1.08;;;24.00;38.10;21.30;94016.00;;;;10410624;28;75075;-60
2021/10/20 06:39:02;;;;;;;1.70;1.13;;;24.00;38.10;21.30;94014.00;;;;10386883;28;46468;-61
2021/10/20 06:44:03;;;;;;;2.25;1.45;;;24.00;38.10;21.30;94015.00;;;;10367686;28;53738;-60
2021/10/20 06:49:04;;;;;;;2.90;1.45;;;24.00;38.10;21.30;94031.00;;;;10375670;28;48326;-62
2021/10/20 06:54:04;;;;;;;2.58;1.42;;;24.00;38.20;21.30;94034.00;;;;10391450;28;75350;-60
2021/10/20 06:59:05;;;;;;;3.13;1.65;;;24.00;38.10;21.40;94011.00;;;;10373614;28;48402;-59
2021/10/20 07:04:06;;;;;;;3.55;1.90;;;24.00;38.10;21.40;94030.00;;;;10390726;28;75441;-62
2021/10/20 07:09:08;;;;;;;3.25;1.75;;;24.00;38.00;21.40;94023.00;;;;10373203;28;49769;-61
2021/10/20 07:14:08;;;;;;;2.80;2.10;;;24.00;37.90;21.40;94035.00;;;;10374127;28;56556;-60
2021/10/20 07:19:09;;;;;;;3.08;1.88;;;24.10;38.00;21.40;94026.00;;;;10356662;28;45989;-62
2021/10/20 07:24:10;;;;;;;4.05;1.90;;;24.10;37.90;21.40;94029.00;;;;10385459;28;75235;-60
2021/10/20 07:29:10;;;;;;;4.28;1.92;;;24.10;38.00;21.40;94042.00;;;;10457827;28;75152;-60
2021/10/20 07:34:11;;;;;;;2.78;1.85;;;24.10;38.00;21.40;94037.00;;;;10457971;28;75493;-59
2021/10/20 07:39:12;;;;;;;2.60;1.80;;;24.10;37.90;21.40;94034.00;;;;10474869;28;73276;-59
2021/10/20 07:44:13;;;;;;;3.15;1.67;;;24.10;38.00;21.30;94033.00;;;;10457162;28;47221;-59
2021/10/20 07:49:14;;;;;;;4.25;2.35;;;24.10;38.10;21.30;94031.00;;;;10475127;28;46215;-59
2021/10/20 07:54:15;;;;;;;5.32;2.47;;;24.10;37.90;21.30;94035.00;;;;10457804;28;45611;-60
2021/10/20 07:59:15;;;;;;;6.20;2.80;;;24.00;37.90;21.30;94028.00;;;;10455779;28;74510;-60
2021/10/20 08:04:17;;;;;;;5.70;2.40;;;24.00;37.90;21.30;94029.00;;;;10457757;28;45962;-59
2021/10/20 08:09:18;;;;;;;5.03;2.53;;;24.00;37.90;21.30;94015.00;;;;10315389;27;60644;-61
2021/10/20 08:15:10;;;;;;;4.65;2.38;;;26.00;37.90;21.30;94022.00;;;;10487139;27;45592;-60
2021/10/20 08:20:17;;;;;;;5.28;2.42;;;26.00;38.10;21.30;93997.00;;;;10482354;28;45367;-59
2021/10/20 08:25:17;;;;;;;4.38;2.42;;;26.00;38.00;21.30;94009.00;;;;10467122;28;45408;-58
2021/10/20 08:35:16;;;;;;;5.22;2.53;;;19.00;38.10;21.30;94010.00;;;;10442754;27;45329;-59
2021/10/20 08:40:17;;;;;;;5.95;2.55;;;19.00;38.00;21.30;94009.00;;;;10459685;28;46383;-59
2021/10/20 08:45:18;;;;;;;4.30;2.17;;;19.00;38.00;21.30;94002.00;;;;10449335;27;45363;-58
2021/10/20 08:51:26;;;;;;;4.95;2.40;;;26.00;38.10;21.40;93998.00;;;;10510056;28;45138;-64
2021/10/20 08:56:28;;;;;;;4.38;2.10;;;26.00;38.10;21.40;93995.00;;;;10467454;28;45169;-63
2021/10/20 09:01:29;;;;;;;5.68;2.30;;;26.00;38.60;21.40;93966.00;;;;10467798;28;46358;-61
2021/10/20 09:06:29;;;;;;;3.58;2.05;;;26.10;38.80;21.50;93973.00;;;;10466389;28;45248;-63
2021/10/20 09:16:36;;;;;;;5.32;2.30;;;26.10;38.90;21.50;93969.00;;;;10467049;28;46175;-63
2021/10/20 09:22:04;;;;;;;4.25;2.03;;;26.20;39.10;21.50;93954.00;;;;10465158;28;46485;-59
2021/10/20 09:27:25;;;;;;;5.07;2.08;;;26.20;39.20;21.50;93944.00;;;;10466104;28;45379;-59
2021/10/20 09:32:27;;;;;;;3.80;2.13;;;26.20;38.80;21.40;93948.00;;;;10467765;28;45271;-61
2021/10/20 09:37:28;;;;;;;4.22;2.13;;;26.10;38.70;21.40;93940.00;;;;10465045;28;46438;-61
2021/10/20 09:42:28;;;;;;;3.85;1.70;;;26.10;38.70;21.40;93936.00;;;;10465637;28;45627;-59
2021/10/20 09:47:29;;;;;;;4.43;1.92;;;26.10;38.70;21.40;93924.00;;;;10465729;28;45441;-60
2021/10/20 09:52:43;;;;;;;3.65;1.90;;;26.10;38.70;21.40;93924.00;;;;10466750;28;45859;-59
2021/10/20 09:57:45;;;;;;;2.85;1.55;;;26.10;38.80;21.40;93915.00;;;;10465142;28;46357;-59
2021/10/20 10:02:46;;;;;;;3.63;1.63;;;26.10;39.40;21.40;93893.00;;;;10439464;28;46408;-60
2021/10/20 10:07:46;;;;;;;3.47;1.73;;;26.10;38.70;21.40;93911.00;;;;10463428;28;45310;-59
2021/10/20 10:12:48;;;;;;;2.38;1.52;;;26.10;38.70;21.40;93894.00;;;;10480614;28;45389;-59
2021/10/20 10:17:55;;;;;;;3.20;1.77;;;26.10;38.80;21.40;93898.00;;;;10477945;28;46452;-59
2021/10/20 10:23:02;;;;;;;2.95;1.60;;;26.10;39.20;21.40;93908.00;;;;10478893;28;45196;-59
2021/10/20 10:28:18;;;;;;;2.90;1.73;;;26.10;38.90;21.40;93893.00;;;;10480044;28;45307;-60
2021/10/20 10:33:27;;;;;;;4.65;1.58;;;26.10;38.90;21.40;93879.00;;;;10425630;28;47083;-59
2021/10/20 10:38:52;;;;;;;3.17;1.77;;;26.10;38.90;21.40;93890.00;;;;10423610;28;45291;-60
2021/10/20 10:44:02;;;;;;;3.75;1.60;;;26.10;39.00;21.40;93867.00;;;;10394584;28;46213;-59
2021/10/20 10:49:29;;;;;;;3.10;1.70;;;26.10;39.00;21.40;93870.00;;;;10410799;28;46401;-60
2021/10/20 10:54:39;;;;;;;3.05;1.70;;;26.10;39.00;21.40;93876.00;;;;10425184;28;45376;-60
2021/10/20 11:00:04;;;;;;;3.72;1.70;;;26.10;39.10;21.40;93880.00;;;;10394037;28;45236;-60
2021/10/20 11:05:07;;;;;;;2.22;1.45;;;26.10;39.20;21.40;93877.00;;;;10475578;28;45613;-59
2021/10/20 11:13:24;;;;;;;2.40;1.50;;;21.10;39.10;21.40;93852.00;;;;10511104;28;45220;-59
2021/10/20 11:18:25;;;;;;;3.85;1.70;;;21.10;39.10;21.40;93863.00;;;;10468431;28;45364;-61
2021/10/20 11:23:30;;;;;;;2.25;1.40;;;21.10;39.20;21.40;93850.00;;;;10468288;28;45281;-60
2021/10/20 11:28:36;;;;;;;3.60;1.73;;;21.10;39.20;21.50;93833.00;;;;10467871;28;45309;-59
2021/10/20 11:33:37;;;;;;;2.25;1.30;;;21.10;39.20;21.50;93839.00;;;;10467258;28;46447;-62
2021/10/20 11:38:42;;;;;;;5.63;1.40;;;21.10;39.70;21.50;93830.00;;;;10442469;28;45402;-61
2021/10/20 11:43:46;;;;;;;3.00;1.40;;;21.20;39.90;21.50;93813.00;;;;10426328;28;45308;-61
2021/10/20 11:48:46;;;;;;;2.40;1.27;;;21.20;40.00;21.50;93799.00;;;;10425829;28;45293;-62
2021/10/20 11:53:47;;;;;;;3.35;1.40;;;21.30;40.10;21.60;93803.00;;;;10441972;28;46826;-61
2021/10/20 11:58:48;;;;;;;3.35;1.25;;;21.30;40.30;21.60;93777.00;;;;10440775;28;45385;-59
2021/10/20 12:03:49;;;;;;;4.80;1.33;;;21.30;40.60;21.50;93775.00;;;;10442321;28;45596;-58
2021/10/20 12:08:50;;;;;;;4.43;1.50;;;21.30;40.60;21.50;93782.00;;;;10466829;28;45380;-61
2021/10/20 12:13:51;;;;;;;3.20;1.20;;;21.20;40.40;21.50;93781.00;;;;10466354;28;45247;-61
2021/10/20 12:18:52;;;;;;;5.45;1.40;;;21.20;40.40;21.50;93777.00;;;;10465846;28;45159;-59
2021/10/20 12:23:57;;;;;;;5.82;1.27;;;21.30;40.70;21.50;93757.00;;;;10442815;28;45367;-59
2021/10/20 12:29:08;;;;;;;2.47;1.17;;;21.40;40.90;21.50;93772.00;;;;10437456;28;47234;-58
2021/10/20 12:34:09;;;;;;;2.90;1.23;;;21.20;40.90;21.50;93755.00;;;;10421039;28;47120;-58
2021/10/20 12:39:09;;;;;;;3.22;1.38;;;21.20;41.00;21.50;93756.00;;;;10437131;28;45564;-60
2021/10/20 12:44:11;;;;;;;2.65;1.48;;;21.10;40.90;21.50;93745.00;;;;10421223;28;47137;-64
2021/10/20 12:49:12;;;;;;;2.10;1.25;;;21.10;41.00;21.40;93738.00;;;;10438017;28;46013;-60
2021/10/20 12:54:13;;;;;;;3.25;1.15;;;21.10;41.20;21.40;93743.00;;;;10437394;28;45577;-59
2021/10/20 12:59:20;;;;;;;2.88;1.10;;;21.10;41.20;21.40;93719.00;;;;10435490;28;48501;-58
2021/10/20 13:04:20;;;;;;;3.30;1.10;;;21.10;41.20;21.40;93721.00;;;;10435751;28;45504;-59
2021/10/20 13:09:21;;;;;;;2.90;1.05;;;21.10;41.20;21.40;93725.00;;;;10475511;28;45481;-59
2021/10/20 13:14:22;;;;;;;2.03;1.00;;;21.10;41.20;21.40;93717.00;;;;10476989;28;45270;-59
2021/10/20 13:19:23;;;;;;;2.53;0.98;;;21.10;41.30;21.40;93716.00;;;;10476893;28;45171;-59
2021/10/20 13:24:24;;;;;;;2.28;1.20;;;21.10;41.20;21.40;93720.00;;;;10478244;28;45441;-60
2021/10/20 13:29:25;;;;;;;3.10;1.35;;;21.10;41.30;21.50;93703.00;;;;10478575;28;46346;-62
2021/10/20 13:34:25;;;;;;;2.70;1.10;;;21.10;41.80;21.50;93693.00;;;;10476132;28;45305;-60
2021/10/20 13:39:26;;;;;;;3.55;1.20;;;21.10;42.00;21.50;93674.00;;;;10477651;28;45448;-60
2021/10/20 13:44:28;;;;;;;3.17;1.10;;;21.10;41.50;21.50;93677.00;;;;10478485;28;46299;-63
2021/10/20 13:49:28;;;;;;;4.15;1.20;;;21.10;41.90;21.50;93678.00;;;;10459043;28;48153;-60
2021/10/20 13:54:29;;;;;;;3.75;1.08;;;21.20;41.90;21.50;93672.00;;;;10477790;28;45518;-60
2021/10/20 13:59:30;;;;;;;4.03;1.13;;;21.20;41.90;21.50;93660.00;;;;10476309;28;45145;-62
2021/10/20 14:04:31;;;;;;;4.28;1.20;;;21.20;42.00;21.60;93653.00;;;;10492887;28;47497;-60
2021/10/20 14:09:31;;;;;;;5.55;1.40;;;21.20;42.20;21.60;93656.00;;;;10471215;28;46238;-58
2021/10/20 14:14:33;;;;;;;4.88;1.52;;;21.20;42.10;21.60;93656.00;;;;10473166;28;46868;-61
2021/10/20 14:19:34;;;;;;;8.93;1.85;;;21.20;42.50;21.60;93660.00;;;;10475374;28;45203;-60
2021/10/20 14:24:34;;;;;;;5.40;1.42;;;21.20;41.80;21.60;93645.00;;;;10475210;28;45531;-60
2021/10/20 14:29:35;;;;;;;4.97;1.77;;;21.30;41.70;21.60;93638.00;;;;10475104;28;45421;-66
2021/10/20 14:34:36;;;;;;;6.35;1.35;;;21.30;42.40;21.50;93645.00;;;;10457543;28;47787;-61
2021/10/20 14:39:38;;;;;;;6.30;1.88;;;21.20;42.20;21.60;93632.00;;;;10453889;28;46804;-61
2021/10/20 14:44:38;;;;;;;8.68;1.63;;;21.30;41.90;21.60;93622.00;;;;10471991;28;46718;-59
2021/10/20 14:49:39;;;;;;;4.72;2.20;;;21.30;41.80;21.60;93602.00;;;;10457078;28;47463;-62
2021/10/20 14:54:40;;;;;;;6.55;2.05;;;21.30;41.90;21.60;93600.00;;;;10474932;28;45298;-61
2021/10/20 14:59:40;;;;;;;7.07;2.20;;;21.30;41.90;21.60;93607.00;;;;10474448;28;46250;-61
2021/10/20 15:04:41;;;;;;;8.73;2.72;;;21.30;41.90;21.60;93597.00;;;;10476039;28;45325;-61
2021/10/20 15:09:42;;;;;;;7.50;2.78;;;21.30;41.90;21.60;93588.00;;;;10473937;28;45556;-61
2021/10/20 15:14:43;;;;;;;12.13;3.33;;;21.30;41.90;21.60;93578.00;;;;10474365;28;46461;-63
2021/10/20 15:19:49;;;;;;;12.60;3.40;;;21.30;42.10;21.70;93581.00;;;;10490107;28;47450;-61
2021/10/20 15:24:50;;;;;;;11.38;3.92;;;21.30;42.30;21.60;93569.00;;;;10475248;28;45562;-60
2021/10/20 15:29:51;;;;;;;10.90;3.78;;;21.30;42.30;21.60;93565.00;;;;10473415;28;46402;-60
2021/10/20 15:34:52;;;;;;;12.07;4.22;;;21.30;42.40;21.70;93553.00;;;;10473763;28;45415;-61
2021/10/20 15:39:53;;;;;;;11.73;3.85;;;21.30;42.20;21.60;93534.00;;;;10469774;28;45239;-63
2021/10/20 15:44:54;;;;;;;12.48;4.38;;;21.30;42.40;21.70;93549.00;;;;10470847;28;45584;-58
2021/10/20 15:49:55;;;;;;;11.65;4.22;;;21.30;42.30;21.70;93532.00;;;;10473936;28;45358;-58
2021/10/20 15:54:56;;;;;;;11.00;4.40;;;21.30;42.30;21.60;93527.00;;;;10474547;28;45588;-59
2021/10/20 15:59:57;;;;;;;14.90;4.43;;;21.30;42.30;21.60;93511.00;;;;10479433;28;46128;-60
2021/10/20 16:04:57;;;;;;;16.15;5.28;;;21.30;42.20;21.60;93508.00;;;;10480075;28;45420;-61
2021/10/20 16:10:00;;;;;;;11.63;4.45;;;21.30;42.20;21.60;93517.00;;;;10463127;28;47498;-60
2021/10/20 16:15:01;;;;;;;12.13;4.25;;;21.30;42.20;21.60;93510.00;;;;10479969;28;48013;-61
2021/10/20 16:20:04;;;;;;;10.23;4.35;;;21.30;42.10;21.60;93496.00;;;;10480905;28;46508;-62
2021/10/20 16:25:09;;;;;;;13.52;4.25;;;21.30;42.20;21.60;93508.00;;;;10480763;28;46237;-60
2021/10/20 16:30:13;;;;;;;10.80;3.87;;;21.30;42.20;21.60;93478.00;;;;10478916;28;45580;-60
2021/10/20 16:35:14;;;;;;;9.40;3.70;;;21.30;42.20;21.60;93493.00;;;;10453075;28;45245;-62
2021/10/20 16:40:15;;;;;;;9.77;3.70;;;21.20;42.40;21.60;93487.00;;;;10438860;28;45442;-69
2021/10/20 16:45:17;;;;;;;10.15;3.17;;;21.30;42.70;21.70;93476.00;;;;10420020;28;46953;-62
2021/10/20 16:50:18;;;;;;;8.48;3.03;;;21.30;42.60;21.70;93469.00;;;;10418378;28;47234;-62
2021/10/20 16:55:20;;;;;;;7.25;2.67;;;21.40;42.60;21.70;93476.00;;;;10437083;28;45566;-60
2021/10/20 17:00:21;;;;;;;6.03;2.50;;;21.40;42.50;21.70;93462.00;;;;10436130;28;45400;-61
2021/10/20 17:05:21;;;;;;;6.75;2.67;;;21.30;42.70;21.70;93455.00;;;;10438434;28;45158;-58
2021/10/20 17:10:23;;;;;;;5.40;2.20;;;21.40;42.80;21.70;93467.00;;;;10433120;28;45649;-65
2021/10/20 17:15:25;;;;;;;9.52;2.17;;;21.40;42.80;21.70;93458.00;;;;10436376;28;45444;-61
2021/10/20 17:20:30;;;;;;;6.10;2.03;;;21.40;43.00;21.60;93455.00;;;;10434284;28;45319;-67
2021/10/20 17:25:30;;;;;;;8.52;2.03;;;21.30;41.80;21.60;93443.00;;;;10451727;28;45559;-65
2021/10/20 17:30:31;;;;;;;4.63;1.45;;;21.30;41.90;21.60;93444.00;;;;10435893;28;45282;-64
2021/10/20 17:35:33;;;;;;;4.75;1.65;;;21.40;42.10;21.70;93429.00;;;;10436631;28;47021;-66
2021/10/20 17:40:34;;;;;;;5.20;1.67;;;21.40;42.40;21.70;93411.00;;;;10435299;28;45363;-62
2021/10/20 17:45:35;;;;;;;4.60;1.80;;;21.40;42.30;21.70;93400.00;;;;10416237;28;47289;-61
2021/10/20 17:50:36;;;;;;;3.90;1.90;;;21.40;42.10;21.70;93401.00;;;;10435940;28;45374;-61
2021/10/20 17:55:37;;;;;;;7.13;2.03;;;21.40;42.30;21.60;93407.00;;;;10433279;28;45404;-62
2021/10/20 18:00:38;;;;;;;7.47;1.80;;;21.30;41.40;21.60;93388.00;;;;10415347;28;48240;-62
2021/10/20 18:05:39;;;;;;;5.70;1.58;;;21.30;41.50;21.70;93401.00;;;;10432537;28;45566;-61
2021/10/20 18:10:41;;;;;;;4.72;1.50;;;21.30;41.90;21.70;93386.00;;;;10415444;28;47561;-60
2021/10/20 18:15:42;;;;;;;4.53;1.60;;;21.40;42.10;21.70;93390.00;;;;10431412;28;45569;-58
2021/10/20 18:20:42;;;;;;;6.38;1.50;;;21.40;42.50;21.70;93370.00;;;;10433685;28;46828;-64
2021/10/20 18:25:43;;;;;;;3.92;1.52;;;21.40;42.10;21.70;93348.00;;;;10434855;28;45581;-63
2021/10/20 18:30:46;;;;;;;7.88;1.63;;;21.40;42.30;21.70;93354.00;;;;10417102;28;47067;-63
2021/10/20 18:35:46;;;;;;;6.32;1.73;;;21.40;42.50;21.80;93347.00;;;;10417441;28;47088;-63
2021/10/20 18:40:47;;;;;;;4.30;1.40;;;21.40;42.70;21.80;93349.00;;;;10434234;28;46312;-61
2021/10/20 18:45:48;;;;;;;2.03;1.10;;;21.40;42.80;21.80;93343.00;;;;10432024;28;45464;-59
2021/10/20 18:50:48;;;;;;;2.38;1.08;;;21.50;42.80;21.80;93334.00;;;;10434432;28;45201;-59
2021/10/20 18:55:49;;;;;;;2.67;1.42;;;21.50;42.60;21.80;93328.00;;;;10439357;28;46669;-59
2021/10/20 19:00:50;;;;;;;6.43;1.10;;;21.50;42.60;21.80;93311.00;;;;10394661;28;47462;-59
2021/10/20 19:05:53;;;;;;;3.05;1.20;;;21.50;42.40;21.80;93323.00;;;;10393307;28;45205;-59
2021/10/20 19:10:54;;;;;;;3.55;1.23;;;21.50;42.40;21.80;93315.00;;;;10390981;28;45205;-59
2021/10/20 19:15:54;;;;;;;3.25;1.10;;;21.50;42.30;21.80;93311.00;;;;10392573;28;45381;-59
2021/10/20 19:20:55;;;;;;;2.90;1.20;;;21.40;42.20;21.80;93297.00;;;;10390830;28;45497;-61
2021/10/20 19:25:56;;;;;;;1.60;0.82;;;21.40;42.10;21.80;93294.00;;;;10392133;28;46235;-63
2021/10/20 19:30:56;;;;;;;3.38;1.23;;;21.40;42.20;21.80;93281.00;;;;10408904;28;47147;-60
2021/10/20 19:35:57;;;;;;;3.58;1.25;;;21.50;42.30;21.80;93278.00;;;;10426653;28;45417;-61
2021/10/20 19:40:58;;;;;;;2.47;1.20;;;21.50;42.30;21.90;93245.00;;;;10437840;28;45212;-63
2021/10/20 19:45:59;;;;;;;2.80;1.25;;;21.50;42.30;21.90;93240.00;;;;10438811;28;45198;-65
2021/10/20 19:51:02;;;;;;;3.67;1.38;;;21.50;42.30;21.90;93233.00;;;;10425709;28;46911;-62
2021/10/20 19:56:03;;;;;;;1.25;0.90;;;21.50;42.30;21.90;93225.00;;;;10401276;28;45373;-61
2021/10/20 20:01:04;;;;;;;3.05;1.30;;;21.60;42.40;21.90;93214.00;;;;10429671;28;47251;-60
2021/10/20 20:06:05;;;;;;;2.28;1.45;;;21.60;42.30;21.90;93204.00;;;;10412005;28;45458;-62
2021/10/20 20:11:05;;;;;;;3.30;1.20;;;21.50;42.40;21.90;93189.00;;;;10428808;28;47510;-62
2021/10/20 20:16:06;;;;;;;3.47;1.30;;;21.60;42.30;21.90;93182.00;;;;10428890;28;47193;-62
2021/10/20 20:21:07;;;;;;;3.20;1.10;;;21.60;42.40;21.90;93177.00;;;;10421569;28;45453;-61
2021/10/20 20:26:08;;;;;;;5.32;1.27;;;21.60;42.30;21.90;93177.00;;;;10436887;28;46384;-61
2021/10/20 20:31:10;;;;;;;3.65;1.30;;;21.60;42.30;21.80;93159.00;;;;10408181;28;45240;-61
2021/10/20 20:36:12;;;;;;;1.70;1.02;;;21.50;42.20;21.80;93156.00;;;;10391833;28;45165;-62
2021/10/20 20:41:12;;;;;;;2.03;1.17;;;21.50;42.20;21.80;93142.00;;;;10395299;28;46497;-61
2021/10/20 20:46:13;;;;;;;2.45;1.17;;;21.50;42.10;21.70;93128.00;;;;10396089;28;45270;-61
2021/10/20 20:51:14;;;;;;;1.73;1.02;;;21.40;42.00;21.70;93137.00;;;;10466326;28;46479;-62
2021/10/20 20:56:15;;;;;;;1.58;0.90;;;21.40;42.00;21.70;93114.00;;;;10478016;28;45333;-61
2021/10/20 21:01:16;;;;;;;1.63;1.00;;;21.30;42.00;21.70;93106.00;;;;10494740;28;46888;-62
2021/10/20 21:06:16;;;;;;;3.35;1.02;;;21.40;42.00;21.60;93083.00;;;;10477233;28;45297;-61
2021/10/20 21:11:18;;;;;;;2.42;1.17;;;21.30;42.00;21.60;93091.00;;;;10477874;28;45582;-61
2021/10/20 21:16:20;;;;;;;1.60;0.98;;;21.30;42.00;21.60;93083.00;;;;10478092;28;45189;-62
2021/10/20 21:21:21;;;;;;;3.28;1.10;;;21.30;41.90;21.60;93073.00;;;;10479573;28;45173;-62
2021/10/20 21:26:22;;;;;;;1.98;1.00;;;21.20;41.90;21.50;93075.00;;;;10477898;28;45398;-62
2021/10/20 21:31:22;;;;;;;1.45;1.13;;;21.20;41.90;21.50;93088.00;;;;10479349;28;45393;-61
2021/10/20 21:36:23;;;;;;;2.15;1.08;;;21.20;41.90;21.50;93076.00;;;;10477804;28;46555;-61
2021/10/20 21:41:24;;;;;;;1.80;1.20;;;21.20;41.90;21.50;93067.00;;;;10477837;28;45560;-61
2021/10/20 21:46:25;;;;;;;2.88;1.13;;;21.10;41.90;21.50;93051.00;;;;10476887;28;46588;-61
2021/10/20 21:51:25;;;;;;;1.98;1.20;;;21.10;41.90;21.40;93037.00;;;;10439508;28;45584;-61
2021/10/20 21:56:26;;;;;;;3.15;1.40;;;21.10;41.90;21.40;93033.00;;;;10434757;28;46000;-61
2021/10/20 22:01:30;;;;;;;1.75;0.80;;;21.10;41.90;21.40;93037.00;;;;10434348;28;45475;-62
2021/10/20 22:06:31;;;;;;;1.45;1.00;;;21.10;41.90;21.40;93016.00;;;;10450199;28;46921;-61
2021/10/20 22:11:32;;;;;;;1.92;1.10;;;21.10;41.90;21.40;93024.00;;;;10433432;28;45333;-61
2021/10/20 22:16:33;;;;;;;1.52;0.90;;;21.10;41.90;21.40;93004.00;;;;10433533;28;45456;-61
2021/10/20 22:21:38;;;;;;;2.28;1.00;;;21.00;41.80;21.40;92994.00;;;;10433582;28;45442;-62